sensor_id;sensor_type;location;lat;lon;timestamp;temperature;humidity
3986;DHT22;2007;48.750;9.278;2023-04-24T00:00:02;19.20;54.30
3986;DHT22;2007;48.750;9.278;2023-04-24T00:02:32;19.20;54.40
3986;DHT22;2007;48.750;9.278;2023-04-24T00:05:01;19.20;54.40
3986;DHT22;2007;48.750;9.278;2023-04-24T00:07:29;19.20;54.30
3986;DHT22;2007;48.750;9.278;2023-04-24T00:09:58;19.20;54.40
3986;DHT22;2007;48.750;9.278;2023-04-24T00:12:26;19.20;54.40
3986;DHT22;2007;48.750;9.278;2023-04-24T00:14:55;19.20;54.30
3986;DHT22;2007;48.750;9.278;2023-04-24T00:17:23;19.20;54.30
3986;DHT22;2007;48.750;9.278;2023-04-24T00:19:51;19.20;54.30
3986;DHT22;2007;48.750;9.278;2023-04-24T00:22:25;19.20;54.30
3986;DHT22;2007;48.750;9.278;2023-04-24T00:24:53;19.20;54.30
3986;DHT22;2007;48.750;9.278;2023-04-24T00:27:20;19.20;54.40
3986;DHT22;2007;48.750;9.278;2023-04-24T00:29:48;19.20;54.30
3986;DHT22;2007;48.750;9.278;2023-04-24T00:32:18;19.20;54.40
3986;DHT22;2007;48.750;9.278;2023-04-24T00:34:46;19.20;54.40
3986;DHT22;2007;48.750;9.278;2023-04-24T00:37:14;19.20;54.40
3986;DHT22;2007;48.750;9.278;2023-04-24T00:39:42;19.20;54.30
3986;DHT22;2007;48.750;9.278;2023-04-24T00:42:11;19.20;54.40
3986;DHT22;2007;48.750;9.278;2023-04-24T00:44:39;19.20;54.30
3986;DHT22;2007;48.750;9.278;2023-04-24T00:47:07;19.20;54.30
3986;DHT22;2007;48.750;9.278;2023-04-24T00:49:36;19.20;54.40
3986;DHT22;2007;48.750;9.278;2023-04-24T00:52:04;19.20;54.40
3986;DHT22;2007;48.750;9.278;2023-04-24T00:54:34;19.20;54.40
3986;DHT22;2007;48.750;9.278;2023-04-24T00:57:02;19.20;54.40
3986;DHT22;2007;48.750;9.278;2023-04-24T00:59:32;19.20;54.40
3986;DHT22;2007;48.750;9.278;2023-04-24T01:02:00;19.20;54.40
3986;DHT22;2007;48.750;9.278;2023-04-24T01:04:28;19.20;54.30
3986;DHT22;2007;48.750;9.278;2023-04-24T01:06:58;19.20;54.40
3986;DHT22;2007;48.750;9.278;2023-04-24T01:09:26;19.20;54.30
3986;DHT22;2007;48.750;9.278;2023-04-24T01:11:54;19.20;54.40
3986;DHT22;2007;48.750;9.278;2023-04-24T01:14:23;19.20;54.40
3986;DHT22;2007;48.750;9.278;2023-04-24T01:16:51;19.20;55.00
3986;DHT22;2007;48.750;9.278;2023-04-24T01:19:19;19.20;54.30
3986;DHT22;2007;48.750;9.278;2023-04-24T01:21:47;19.20;54.30
3986;DHT22;2007;48.750;9.278;2023-04-24T01:24:19;19.20;54.40
3986;DHT22;2007;48.750;9.278;2023-04-24T01:26:48;19.20;54.30
3986;DHT22;2007;48.750;9.278;2023-04-24T01:29:16;19.20;54.40
3986;DHT22;2007;48.750;9.278;2023-04-24T01:31:44;19.20;54.30
3986;DHT22;2007;48.750;9.278;2023-04-24T01:34:12;19.20;54.40
3986;DHT22;2007;48.750;9.278;2023-04-24T01:36:41;19.20;54.30
3986;DHT22;2007;48.750;9.278;2023-04-24T01:39:10;19.20;54.30
3986;DHT22;2007;48.750;9.278;2023-04-24T01:41:39;19.20;54.40
3986;DHT22;2007;48.750;9.278;2023-04-24T01:44:07;19.20;55.00
3986;DHT22;2007;48.750;9.278;2023-04-24T01:46:35;19.20;54.30
3986;DHT22;2007;48.750;9.278;2023-04-24T01:49:03;19.20;54.30
3986;DHT22;2007;48.750;9.278;2023-04-24T01:51:32;19.20;54.40
3986;DHT22;2007;48.750;9.278;2023-04-24T01:54:00;19.20;54.40
3986;DHT22;2007;48.750;9.278;2023-04-24T01:56:29;19.20;54.40
3986;DHT22;2007;48.750;9.278;2023-04-24T01:59:00;19.20;54.40
3986;DHT22;2007;48.750;9.278;2023-04-24T02:01:33;19.20;54.30
3986;DHT22;2007;48.750;9.278;2023-04-24T02:04:02;19.20;54.40
3986;DHT22;2007;48.750;9.278;2023-04-24T02:06:30;19.20;54.40
3986;DHT22;2007;48.750;9.278;2023-04-24T02:08:59;19.20;54.30
3986;DHT22;2007;48.750;9.278;2023-04-24T02:11:27;19.20;54.40
3986;DHT22;2007;48.750;9.278;2023-04-24T02:13:55;19.20;54.30
3986;DHT22;2007;48.750;9.278;2023-04-24T02:16:24;19.20;54.40
3986;DHT22;2007;48.750;9.278;2023-04-24T02:18:52;19.20;54.40
3986;DHT22;2007;48.750;9.278;2023-04-24T02:21:20;19.20;54.40
3986;DHT22;2007;48.750;9.278;2023-04-24T02:23:48;19.20;54.40
3986;DHT22;2007;48.750;9.278;2023-04-24T02:26:16;19.20;54.30
3986;DHT22;2007;48.750;9.278;2023-04-24T02:28:44;19.20;54.40
3986;DHT22;2007;48.750;9.278;2023-04-24T02:31:12;19.20;54.40
3986;DHT22;2007;48.750;9.278;2023-04-24T02:33:42;19.20;54.30
3986;DHT22;2007;48.750;9.278;2023-04-24T02:36:09;19.20;54.30
3986;DHT22;2007;48.750;9.278;2023-04-24T02:38:37;19.20;54.40
3986;DHT22;2007;48.750;9.278;2023-04-24T02:41:05;19.20;54.40
3986;DHT22;2007;48.750;9.278;2023-04-24T02:43:33;19.20;54.40
3986;DHT22;2007;48.750;9.278;2023-04-24T02:46:02;19.20;54.40
3986;DHT22;2007;48.750;9.278;2023-04-24T02:48:30;19.20;54.40
3986;DHT22;2007;48.750;9.278;2023-04-24T02:50:59;19.20;54.40
3986;DHT22;2007;48.750;9.278;2023-04-24T02:53:27;19.20;54.30
3986;DHT22;2007;48.750;9.278;2023-04-24T02:55:56;19.20;54.40
3986;DHT22;2007;48.750;9.278;2023-04-24T02:58:24;19.20;54.30
3986;DHT22;2007;48.750;9.278;2023-04-24T03:00:53;19.20;54.40
3986;DHT22;2007;48.750;9.278;2023-04-24T03:03:22;19.20;54.30
3986;DHT22;2007;48.750;9.278;2023-04-24T03:05:51;19.20;54.30
3986;DHT22;2007;48.750;9.278;2023-04-24T03:08:20;19.20;54.40
3986;DHT22;2007;48.750;9.278;2023-04-24T03:10:48;19.20;54.40
3986;DHT22;2007;48.750;9.278;2023-04-24T03:13:16;19.20;54.40
3986;DHT22;2007;48.750;9.278;2023-04-24T03:15:44;19.20;54.30
3986;DHT22;2007;48.750;9.278;2023-04-24T03:18:13;19.20;54.40
3986;DHT22;2007;48.750;9.278;2023-04-24T03:20:42;19.20;54.30
3986;DHT22;2007;48.750;9.278;2023-04-24T03:23:10;19.20;54.40
3986;DHT22;2007;48.750;9.278;2023-04-24T03:25:39;19.20;54.40
3986;DHT22;2007;48.750;9.278;2023-04-24T03:28:07;19.20;54.40
3986;DHT22;2007;48.750;9.278;2023-04-24T03:30:35;19.20;54.40
3986;DHT22;2007;48.750;9.278;2023-04-24T03:33:03;19.20;54.40
3986;DHT22;2007;48.750;9.278;2023-04-24T03:35:31;19.20;54.40
3986;DHT22;2007;48.750;9.278;2023-04-24T03:37:59;19.20;54.40
3986;DHT22;2007;48.750;9.278;2023-04-24T03:40:26;19.20;54.40
3986;DHT22;2007;48.750;9.278;2023-04-24T03:42:57;19.20;54.40
3986;DHT22;2007;48.750;9.278;2023-04-24T03:45:25;19.20;54.40
3986;DHT22;2007;48.750;9.278;2023-04-24T03:47:53;19.20;54.40
3986;DHT22;2007;48.750;9.278;2023-04-24T03:50:21;19.20;54.40
3986;DHT22;2007;48.750;9.278;2023-04-24T03:52:49;19.20;54.40
3986;DHT22;2007;48.750;9.278;2023-04-24T03:55:17;19.20;54.40
3986;DHT22;2007;48.750;9.278;2023-04-24T03:57:45;19.20;54.40
3986;DHT22;2007;48.750;9.278;2023-04-24T04:00:14;19.20;54.40
3986;DHT22;2007;48.750;9.278;2023-04-24T04:02:42;19.20;54.40
3986;DHT22;2007;48.750;9.278;2023-04-24T04:05:11;19.20;54.40
3986;DHT22;2007;48.750;9.278;2023-04-24T04:07:39;19.10;54.30
3986;DHT22;2007;48.750;9.278;2023-04-24T04:10:07;19.20;54.40
3986;DHT22;2007;48.750;9.278;2023-04-24T04:12:35;19.20;54.40
3986;DHT22;2007;48.750;9.278;2023-04-24T04:15:03;19.10;54.30
3986;DHT22;2007;48.750;9.278;2023-04-24T04:17:33;19.20;54.40
3986;DHT22;2007;48.750;9.278;2023-04-24T04:20:01;19.10;54.30
3986;DHT22;2007;48.750;9.278;2023-04-24T04:22:33;19.20;54.40
3986;DHT22;2007;48.750;9.278;2023-04-24T04:25:01;19.10;54.30
3986;DHT22;2007;48.750;9.278;2023-04-24T04:27:29;19.10;54.30
3986;DHT22;2007;48.750;9.278;2023-04-24T04:29:58;19.10;54.30
3986;DHT22;2007;48.750;9.278;2023-04-24T04:32:31;19.10;54.30
3986;DHT22;2007;48.750;9.278;2023-04-24T04:35:01;19.10;54.30
3986;DHT22;2007;48.750;9.278;2023-04-24T04:37:30;19.10;54.30
3986;DHT22;2007;48.750;9.278;2023-04-24T04:40:00;19.10;54.30
3986;DHT22;2007;48.750;9.278;2023-04-24T04:42:28;19.20;54.40
3986;DHT22;2007;48.750;9.278;2023-04-24T04:44:55;19.10;55.00
3986;DHT22;2007;48.750;9.278;2023-04-24T04:47:24;19.10;54.30
3986;DHT22;2007;48.750;9.278;2023-04-24T04:49:53;19.10;54.30
3986;DHT22;2007;48.750;9.278;2023-04-24T04:52:22;19.10;54.40
3986;DHT22;2007;48.750;9.278;2023-04-24T04:54:52;19.10;54.40
3986;DHT22;2007;48.750;9.278;2023-04-24T04:57:20;19.10;54.40
3986;DHT22;2007;48.750;9.278;2023-04-24T04:59:48;19.10;54.30
3986;DHT22;2007;48.750;9.278;2023-04-24T05:02:16;19.10;54.40
3986;DHT22;2007;48.750;9.278;2023-04-24T05:04:44;19.10;54.40
3986;DHT22;2007;48.750;9.278;2023-04-24T05:07:13;19.10;54.40
3986;DHT22;2007;48.750;9.278;2023-04-24T05:09:42;19.10;54.30
3986;DHT22;2007;48.750;9.278;2023-04-24T05:12:11;19.10;54.40
3986;DHT22;2007;48.750;9.278;2023-04-24T05:14:39;19.10;54.40
3986;DHT22;2007;48.750;9.278;2023-04-24T05:17:07;19.10;54.40
3986;DHT22;2007;48.750;9.278;2023-04-24T05:19:35;19.10;54.40
3986;DHT22;2007;48.750;9.278;2023-04-24T05:22:05;19.10;54.40
3986;DHT22;2007;48.750;9.278;2023-04-24T05:24:33;19.10;54.40
3986;DHT22;2007;48.750;9.278;2023-04-24T05:27:03;19.10;54.40
3986;DHT22;2007;48.750;9.278;2023-04-24T05:29:32;19.10;54.30
3986;DHT22;2007;48.750;9.278;2023-04-24T05:32:00;19.10;54.40
3986;DHT22;2007;48.750;9.278;2023-04-24T05:34:28;19.10;54.40
3986;DHT22;2007;48.750;9.278;2023-04-24T05:36:56;19.10;54.30
3986;DHT22;2007;48.750;9.278;2023-04-24T05:39:24;19.10;54.30
3986;DHT22;2007;48.750;9.278;2023-04-24T05:41:52;19.10;54.30
3986;DHT22;2007;48.750;9.278;2023-04-24T05:44:21;19.10;54.40
3986;DHT22;2007;48.750;9.278;2023-04-24T05:46:49;19.10;54.40
3986;DHT22;2007;48.750;9.278;2023-04-24T05:49:17;19.10;54.40
3986;DHT22;2007;48.750;9.278;2023-04-24T05:51:45;19.10;54.40
3986;DHT22;2007;48.750;9.278;2023-04-24T05:54:13;19.10;54.40
3986;DHT22;2007;48.750;9.278;2023-04-24T05:56:41;19.10;54.40
3986;DHT22;2007;48.750;9.278;2023-04-24T05:59:09;19.10;54.30
3986;DHT22;2007;48.750;9.278;2023-04-24T06:01:38;19.10;54.40
3986;DHT22;2007;48.750;9.278;2023-04-24T06:04:07;19.10;54.40
3986;DHT22;2007;48.750;9.278;2023-04-24T06:06:35;19.10;54.40
3986;DHT22;2007;48.750;9.278;2023-04-24T06:09:03;19.10;54.40
3986;DHT22;2007;48.750;9.278;2023-04-24T06:11:31;19.10;54.40
3986;DHT22;2007;48.750;9.278;2023-04-24T06:13:59;19.10;54.40
3986;DHT22;2007;48.750;9.278;2023-04-24T06:16:27;19.10;54.40
3986;DHT22;2007;48.750;9.278;2023-04-24T06:18:57;19.10;54.40
3986;DHT22;2007;48.750;9.278;2023-04-24T06:21:25;19.00;54.90
3986;DHT22;2007;48.750;9.278;2023-04-24T06:23:54;19.10;54.40
3986;DHT22;2007;48.750;9.278;2023-04-24T06:26:22;19.10;54.40
3986;DHT22;2007;48.750;9.278;2023-04-24T06:28:51;19.10;54.40
3986;DHT22;2007;48.750;9.278;2023-04-24T06:31:20;19.10;54.40
3986;DHT22;2007;48.750;9.278;2023-04-24T06:33:48;19.10;55.00
3986;DHT22;2007;48.750;9.278;2023-04-24T06:36:18;19.10;54.40
3986;DHT22;2007;48.750;9.278;2023-04-24T06:38:46;19.10;54.40
3986;DHT22;2007;48.750;9.278;2023-04-24T06:41:14;19.10;54.40
3986;DHT22;2007;48.750;9.278;2023-04-24T06:43:41;19.10;55.00
3986;DHT22;2007;48.750;9.278;2023-04-24T06:46:10;19.10;54.40
3986;DHT22;2007;48.750;9.278;2023-04-24T06:48:39;19.10;54.40
3986;DHT22;2007;48.750;9.278;2023-04-24T06:51:06;19.00;54.30
3986;DHT22;2007;48.750;9.278;2023-04-24T06:53:36;19.10;54.40
3986;DHT22;2007;48.750;9.278;2023-04-24T06:56:04;19.10;54.40
3986;DHT22;2007;48.750;9.278;2023-04-24T06:58:32;19.10;54.40
3986;DHT22;2007;48.750;9.278;2023-04-24T07:01:00;19.10;54.40
3986;DHT22;2007;48.750;9.278;2023-04-24T07:03:28;19.10;54.40
3986;DHT22;2007;48.750;9.278;2023-04-24T07:05:56;19.10;54.40
3986;DHT22;2007;48.750;9.278;2023-04-24T07:08:24;19.10;54.40
3986;DHT22;2007;48.750;9.278;2023-04-24T07:10:53;19.10;54.40
3986;DHT22;2007;48.750;9.278;2023-04-24T07:13:23;19.10;54.40
3986;DHT22;2007;48.750;9.278;2023-04-24T07:15:51;19.10;54.40
3986;DHT22;2007;48.750;9.278;2023-04-24T07:18:20;19.10;54.40
3986;DHT22;2007;48.750;9.278;2023-04-24T07:20:48;19.10;54.40
3986;DHT22;2007;48.750;9.278;2023-04-24T07:23:17;19.10;54.40
3986;DHT22;2007;48.750;9.278;2023-04-24T07:25:45;19.10;54.40
3986;DHT22;2007;48.750;9.278;2023-04-24T07:28:14;19.00;54.30
3986;DHT22;2007;48.750;9.278;2023-04-24T07:30:44;19.10;54.40
3986;DHT22;2007;48.750;9.278;2023-04-24T07:33:12;19.00;54.30
3986;DHT22;2007;48.750;9.278;2023-04-24T07:35:40;19.10;54.40
3986;DHT22;2007;48.750;9.278;2023-04-24T07:38:08;19.10;54.40
3986;DHT22;2007;48.750;9.278;2023-04-24T07:40:36;19.10;54.40
3986;DHT22;2007;48.750;9.278;2023-04-24T07:43:04;19.10;54.40
3986;DHT22;2007;48.750;9.278;2023-04-24T07:45:33;19.10;54.40
3986;DHT22;2007;48.750;9.278;2023-04-24T07:48:03;19.10;54.30
3986;DHT22;2007;48.750;9.278;2023-04-24T07:50:32;19.10;54.40
3986;DHT22;2007;48.750;9.278;2023-04-24T07:52:59;19.10;54.40
3986;DHT22;2007;48.750;9.278;2023-04-24T07:55:27;19.10;54.40
3986;DHT22;2007;48.750;9.278;2023-04-24T07:57:55;19.10;54.40
3986;DHT22;2007;48.750;9.278;2023-04-24T08:00:23;19.10;54.40
3986;DHT22;2007;48.750;9.278;2023-04-24T08:02:52;19.10;54.40
3986;DHT22;2007;48.750;9.278;2023-04-24T08:05:20;19.10;54.40
3986;DHT22;2007;48.750;9.278;2023-04-24T08:07:49;19.10;54.40
3986;DHT22;2007;48.750;9.278;2023-04-24T08:10:17;19.10;54.40
3986;DHT22;2007;48.750;9.278;2023-04-24T08:12:45;19.10;54.40
3986;DHT22;2007;48.750;9.278;2023-04-24T08:15:12;19.10;54.30
3986;DHT22;2007;48.750;9.278;2023-04-24T08:17:40;19.10;54.30
3986;DHT22;2007;48.750;9.278;2023-04-24T08:20:11;19.10;54.30
3986;DHT22;2007;48.750;9.278;2023-04-24T08:22:40;19.10;54.30
3986;DHT22;2007;48.750;9.278;2023-04-24T08:25:08;19.10;54.30
3986;DHT22;2007;48.750;9.278;2023-04-24T08:27:36;19.10;54.30
3986;DHT22;2007;48.750;9.278;2023-04-24T08:30:06;19.10;54.30
3986;DHT22;2007;48.750;9.278;2023-04-24T08:32:35;19.10;54.30
3986;DHT22;2007;48.750;9.278;2023-04-24T08:35:04;19.00;54.10
3986;DHT22;2007;48.750;9.278;2023-04-24T08:37:33;19.10;54.20
3986;DHT22;2007;48.750;9.278;2023-04-24T08:40:06;19.00;54.10
3986;DHT22;2007;48.750;9.278;2023-04-24T08:42:39;19.10;54.20
3986;DHT22;2007;48.750;9.278;2023-04-24T08:45:11;19.10;54.30
3986;DHT22;2007;48.750;9.278;2023-04-24T08:47:40;19.00;54.10
3986;DHT22;2007;48.750;9.278;2023-04-24T08:50:09;19.10;54.30
3986;DHT22;2007;48.750;9.278;2023-04-24T08:52:38;19.10;54.20
3986;DHT22;2007;48.750;9.278;2023-04-24T08:55:06;19.10;54.30
3986;DHT22;2007;48.750;9.278;2023-04-24T08:57:35;19.10;54.30
3986;DHT22;2007;48.750;9.278;2023-04-24T09:00:07;19.10;54.20
3986;DHT22;2007;48.750;9.278;2023-04-24T09:02:40;19.10;54.20
3986;DHT22;2007;48.750;9.278;2023-04-24T09:05:10;19.00;54.10
3986;DHT22;2007;48.750;9.278;2023-04-24T09:07:39;19.00;54.10
3986;DHT22;2007;48.750;9.278;2023-04-24T09:10:09;19.00;54.10
3986;DHT22;2007;48.750;9.278;2023-04-24T09:12:38;19.00;54.10
3986;DHT22;2007;48.750;9.278;2023-04-24T09:15:07;19.00;54.10
3986;DHT22;2007;48.750;9.278;2023-04-24T09:17:36;19.00;54.10
3986;DHT22;2007;48.750;9.278;2023-04-24T09:20:05;19.00;54.00
3986;DHT22;2007;48.750;9.278;2023-04-24T09:22:33;19.00;54.00
3986;DHT22;2007;48.750;9.278;2023-04-24T09:25:07;19.00;54.10
3986;DHT22;2007;48.750;9.278;2023-04-24T09:27:35;19.00;54.00
3986;DHT22;2007;48.750;9.278;2023-04-24T09:30:04;19.00;54.00
3986;DHT22;2007;48.750;9.278;2023-04-24T09:32:32;19.00;54.00
3986;DHT22;2007;48.750;9.278;2023-04-24T09:35:11;19.00;54.00
3986;DHT22;2007;48.750;9.278;2023-04-24T09:37:40;19.00;54.00
3986;DHT22;2007;48.750;9.278;2023-04-24T09:40:15;19.00;54.00
3986;DHT22;2007;48.750;9.278;2023-04-24T09:42:44;19.00;54.00
3986;DHT22;2007;48.750;9.278;2023-04-24T09:45:13;19.00;54.00
3986;DHT22;2007;48.750;9.278;2023-04-24T09:47:42;19.00;54.00
3986;DHT22;2007;48.750;9.278;2023-04-24T09:50:12;19.00;54.00
3986;DHT22;2007;48.750;9.278;2023-04-24T09:52:43;19.00;54.00
3986;DHT22;2007;48.750;9.278;2023-04-24T09:55:15;19.00;54.00
3986;DHT22;2007;48.750;9.278;2023-04-24T09:57:48;19.00;54.00
3986;DHT22;2007;48.750;9.278;2023-04-24T10:00:22;19.00;54.00
3986;DHT22;2007;48.750;9.278;2023-04-24T10:02:51;19.00;54.00
3986;DHT22;2007;48.750;9.278;2023-04-24T10:05:24;19.00;54.00
3986;DHT22;2007;48.750;9.278;2023-04-24T10:07:56;19.00;54.00
3986;DHT22;2007;48.750;9.278;2023-04-24T10:10:26;19.00;54.00
3986;DHT22;2007;48.750;9.278;2023-04-24T10:12:55;19.00;54.00
3986;DHT22;2007;48.750;9.278;2023-04-24T10:15:23;19.00;54.00
3986;DHT22;2007;48.750;9.278;2023-04-24T10:17:51;19.00;54.60
3986;DHT22;2007;48.750;9.278;2023-04-24T10:20:20;19.00;54.00
3986;DHT22;2007;48.750;9.278;2023-04-24T10:22:50;19.00;53.90
3986;DHT22;2007;48.750;9.278;2023-04-24T10:25:20;19.00;53.90
3986;DHT22;2007;48.750;9.278;2023-04-24T10:27:51;19.00;53.90
3986;DHT22;2007;48.750;9.278;2023-04-24T10:30:20;19.00;53.90
3986;DHT22;2007;48.750;9.278;2023-04-24T10:32:48;19.00;53.90
3986;DHT22;2007;48.750;9.278;2023-04-24T10:35:17;19.00;53.90
3986;DHT22;2007;48.750;9.278;2023-04-24T10:37:50;19.00;53.90
3986;DHT22;2007;48.750;9.278;2023-04-24T10:40:19;19.00;53.90
3986;DHT22;2007;48.750;9.278;2023-04-24T10:42:54;19.00;53.90
3986;DHT22;2007;48.750;9.278;2023-04-24T10:45:25;19.00;53.90
3986;DHT22;2007;48.750;9.278;2023-04-24T10:47:56;19.00;53.90
3986;DHT22;2007;48.750;9.278;2023-04-24T10:50:26;19.00;53.90
3986;DHT22;2007;48.750;9.278;2023-04-24T10:53:05;19.00;53.90
3986;DHT22;2007;48.750;9.278;2023-04-24T10:55:41;19.00;53.90
3986;DHT22;2007;48.750;9.278;2023-04-24T10:58:10;19.00;53.90
3986;DHT22;2007;48.750;9.278;2023-04-24T11:00:39;19.00;53.90
3986;DHT22;2007;48.750;9.278;2023-04-24T11:03:23;19.00;53.90
3986;DHT22;2007;48.750;9.278;2023-04-24T11:05:55;19.00;53.80
3986;DHT22;2007;48.750;9.278;2023-04-24T11:08:26;19.00;53.90
3986;DHT22;2007;48.750;9.278;2023-04-24T11:10:57;19.00;53.90
3986;DHT22;2007;48.750;9.278;2023-04-24T11:13:28;19.00;53.80
3986;DHT22;2007;48.750;9.278;2023-04-24T11:16:20;19.00;53.80
3986;DHT22;2007;48.750;9.278;2023-04-24T11:18:51;19.00;53.80
3986;DHT22;2007;48.750;9.278;2023-04-24T11:21:22;19.00;53.80
3986;DHT22;2007;48.750;9.278;2023-04-24T11:23:50;19.00;53.80
3986;DHT22;2007;48.750;9.278;2023-04-24T11:26:21;19.00;53.80
3986;DHT22;2007;48.750;9.278;2023-04-24T11:28:52;19.00;53.80
3986;DHT22;2007;48.750;9.278;2023-04-24T11:31:37;19.00;53.90
3986;DHT22;2007;48.750;9.278;2023-04-24T11:34:07;19.00;53.80
3986;DHT22;2007;48.750;9.278;2023-04-24T11:36:35;19.00;53.90
3986;DHT22;2007;48.750;9.278;2023-04-24T11:39:04;19.00;53.90
3986;DHT22;2007;48.750;9.278;2023-04-24T11:41:34;19.00;53.90
3986;DHT22;2007;48.750;9.278;2023-04-24T11:44:06;19.00;53.90
3986;DHT22;2007;48.750;9.278;2023-04-24T11:46:35;19.00;53.80
3986;DHT22;2007;48.750;9.278;2023-04-24T11:49:07;19.00;53.90
3986;DHT22;2007;48.750;9.278;2023-04-24T11:51:35;19.00;53.80
3986;DHT22;2007;48.750;9.278;2023-04-24T11:54:19;19.00;53.90
3986;DHT22;2007;48.750;9.278;2023-04-24T11:56:47;19.00;53.80
3986;DHT22;2007;48.750;9.278;2023-04-24T11:59:16;19.00;53.90
3986;DHT22;2007;48.750;9.278;2023-04-24T12:01:44;19.00;53.90
3986;DHT22;2007;48.750;9.278;2023-04-24T12:04:13;19.00;53.80
3986;DHT22;2007;48.750;9.278;2023-04-24T12:06:59;19.00;54.20
3986;DHT22;2007;48.750;9.278;2023-04-24T12:09:40;19.00;53.80
3986;DHT22;2007;48.750;9.278;2023-04-24T12:12:09;19.00;53.80
3986;DHT22;2007;48.750;9.278;2023-04-24T12:14:44;19.00;53.80
3986;DHT22;2007;48.750;9.278;2023-04-24T12:17:12;19.00;53.80
3986;DHT22;2007;48.750;9.278;2023-04-24T12:19:45;19.00;53.80
3986;DHT22;2007;48.750;9.278;2023-04-24T12:22:14;19.00;53.80
3986;DHT22;2007;48.750;9.278;2023-04-24T12:25:09;19.00;53.80
3986;DHT22;2007;48.750;9.278;2023-04-24T12:27:38;19.00;53.70
3986;DHT22;2007;48.750;9.278;2023-04-24T12:30:12;18.90;53.60
3986;DHT22;2007;48.750;9.278;2023-04-24T12:32:42;19.00;53.70
3986;DHT22;2007;48.750;9.278;2023-04-24T12:35:10;19.00;53.70
3986;DHT22;2007;48.750;9.278;2023-04-24T12:37:38;19.00;53.70
3986;DHT22;2007;48.750;9.278;2023-04-24T12:40:07;19.00;53.70
3986;DHT22;2007;48.750;9.278;2023-04-24T12:42:42;19.00;53.70
3986;DHT22;2007;48.750;9.278;2023-04-24T12:45:12;19.00;53.70
3986;DHT22;2007;48.750;9.278;2023-04-24T12:47:41;19.00;53.70
3986;DHT22;2007;48.750;9.278;2023-04-24T12:50:10;19.00;53.80
3986;DHT22;2007;48.750;9.278;2023-04-24T12:52:38;19.00;53.70
3986;DHT22;2007;48.750;9.278;2023-04-24T12:55:07;19.00;53.70
3986;DHT22;2007;48.750;9.278;2023-04-24T12:57:37;19.00;53.80
3986;DHT22;2007;48.750;9.278;2023-04-24T13:00:07;19.00;53.70
3986;DHT22;2007;48.750;9.278;2023-04-24T13:02:37;19.00;53.70
3986;DHT22;2007;48.750;9.278;2023-04-24T13:05:05;19.00;53.70
3986;DHT22;2007;48.750;9.278;2023-04-24T13:07:33;19.00;53.70
3986;DHT22;2007;48.750;9.278;2023-04-24T13:10:01;19.00;53.70
3986;DHT22;2007;48.750;9.278;2023-04-24T13:12:29;19.00;53.80
3986;DHT22;2007;48.750;9.278;2023-04-24T13:14:58;19.00;53.70
3986;DHT22;2007;48.750;9.278;2023-04-24T13:17:26;19.00;53.70
3986;DHT22;2007;48.750;9.278;2023-04-24T13:19:55;19.00;53.70
3986;DHT22;2007;48.750;9.278;2023-04-24T13:22:23;19.00;53.80
3986;DHT22;2007;48.750;9.278;2023-04-24T13:24:51;19.00;53.70
3986;DHT22;2007;48.750;9.278;2023-04-24T13:27:19;19.00;53.80
3986;DHT22;2007;48.750;9.278;2023-04-24T13:29:47;18.90;53.70
3986;DHT22;2007;48.750;9.278;2023-04-24T13:32:15;18.90;53.70
3986;DHT22;2007;48.750;9.278;2023-04-24T13:34:44;19.00;53.80
3986;DHT22;2007;48.750;9.278;2023-04-24T13:37:13;19.00;53.80
3986;DHT22;2007;48.750;9.278;2023-04-24T13:39:41;19.00;53.70
3986;DHT22;2007;48.750;9.278;2023-04-24T13:42:09;19.00;53.70
3986;DHT22;2007;48.750;9.278;2023-04-24T13:44:37;19.00;53.80
3986;DHT22;2007;48.750;9.278;2023-04-24T13:47:05;19.00;53.80
3986;DHT22;2007;48.750;9.278;2023-04-24T13:49:33;19.00;53.80
3986;DHT22;2007;48.750;9.278;2023-04-24T13:52:02;19.00;53.80
3986;DHT22;2007;48.750;9.278;2023-04-24T13:54:31;18.90;53.70
3986;DHT22;2007;48.750;9.278;2023-04-24T13:56:59;19.00;54.00
3986;DHT22;2007;48.750;9.278;2023-04-24T13:59:29;19.00;53.80
3986;DHT22;2007;48.750;9.278;2023-04-24T14:01:57;19.00;53.80
3986;DHT22;2007;48.750;9.278;2023-04-24T14:04:25;19.00;53.80
3986;DHT22;2007;48.750;9.278;2023-04-24T14:06:53;19.00;53.80
3986;DHT22;2007;48.750;9.278;2023-04-24T14:09:21;19.00;53.80
3986;DHT22;2007;48.750;9.278;2023-04-24T14:11:51;19.00;53.80
3986;DHT22;2007;48.750;9.278;2023-04-24T14:14:19;19.00;53.80
3986;DHT22;2007;48.750;9.278;2023-04-24T14:16:47;19.00;53.80
3986;DHT22;2007;48.750;9.278;2023-04-24T14:19:15;18.90;53.70
3986;DHT22;2007;48.750;9.278;2023-04-24T14:21:43;19.00;53.80
3986;DHT22;2007;48.750;9.278;2023-04-24T14:24:11;19.00;53.80
3986;DHT22;2007;48.750;9.278;2023-04-24T14:26:39;18.90;53.70
3986;DHT22;2007;48.750;9.278;2023-04-24T14:29:08;19.00;53.80
3986;DHT22;2007;48.750;9.278;2023-04-24T14:31:41;18.90;53.70
3986;DHT22;2007;48.750;9.278;2023-04-24T14:34:09;19.00;53.80
3986;DHT22;2007;48.750;9.278;2023-04-24T14:36:37;18.90;53.70
3986;DHT22;2007;48.750;9.278;2023-04-24T14:39:06;18.90;53.70
3986;DHT22;2007;48.750;9.278;2023-04-24T14:41:34;19.00;53.80
3986;DHT22;2007;48.750;9.278;2023-04-24T14:44:03;19.00;53.80
3986;DHT22;2007;48.750;9.278;2023-04-24T14:46:33;19.00;53.80
3986;DHT22;2007;48.750;9.278;2023-04-24T14:49:01;18.90;53.70
3986;DHT22;2007;48.750;9.278;2023-04-24T14:51:29;19.00;53.80
3986;DHT22;2007;48.750;9.278;2023-04-24T14:53:58;19.00;53.80
3986;DHT22;2007;48.750;9.278;2023-04-24T14:56:26;19.00;53.80
3986;DHT22;2007;48.750;9.278;2023-04-24T14:58:54;19.00;53.80
3986;DHT22;2007;48.750;9.278;2023-04-24T15:01:22;19.00;53.80
3986;DHT22;2007;48.750;9.278;2023-04-24T15:03:53;19.00;53.80
3986;DHT22;2007;48.750;9.278;2023-04-24T15:06:21;19.00;53.80
3986;DHT22;2007;48.750;9.278;2023-04-24T15:08:49;19.00;53.80
3986;DHT22;2007;48.750;9.278;2023-04-24T15:11:17;19.00;53.90
3986;DHT22;2007;48.750;9.278;2023-04-24T15:13:45;19.00;53.80
3986;DHT22;2007;48.750;9.278;2023-04-24T15:16:13;19.00;53.90
3986;DHT22;2007;48.750;9.278;2023-04-24T15:18:42;19.00;53.80
3986;DHT22;2007;48.750;9.278;2023-04-24T15:21:11;19.00;53.80
3986;DHT22;2007;48.750;9.278;2023-04-24T15:23:39;18.90;53.80
3986;DHT22;2007;48.750;9.278;2023-04-24T15:26:07;19.00;53.90
3986;DHT22;2007;48.750;9.278;2023-04-24T15:28:35;18.90;53.80
3986;DHT22;2007;48.750;9.278;2023-04-24T15:31:03;19.00;53.90
3986;DHT22;2007;48.750;9.278;2023-04-24T15:33:31;19.00;53.80
3986;DHT22;2007;48.750;9.278;2023-04-24T15:35:59;18.90;53.80
3986;DHT22;2007;48.750;9.278;2023-04-24T15:38:28;18.90;53.70
3986;DHT22;2007;48.750;9.278;2023-04-24T15:40:56;19.00;53.90
3986;DHT22;2007;48.750;9.278;2023-04-24T15:43:24;19.00;53.90
3986;DHT22;2007;48.750;9.278;2023-04-24T15:45:52;19.00;53.90
3986;DHT22;2007;48.750;9.278;2023-04-24T15:48:20;19.00;53.80
3986;DHT22;2007;48.750;9.278;2023-04-24T15:50:48;19.00;53.90
3986;DHT22;2007;48.750;9.278;2023-04-24T15:53:15;19.00;53.80
3986;DHT22;2007;48.750;9.278;2023-04-24T15:55:49;19.00;53.90
3986;DHT22;2007;48.750;9.278;2023-04-24T15:58:20;19.00;53.80
3986;DHT22;2007;48.750;9.278;2023-04-24T16:00:48;19.00;53.80
3986;DHT22;2007;48.750;9.278;2023-04-24T16:03:16;19.00;53.80
3986;DHT22;2007;48.750;9.278;2023-04-24T16:05:44;19.00;53.80
3986;DHT22;2007;48.750;9.278;2023-04-24T16:08:12;19.00;53.80
3986;DHT22;2007;48.750;9.278;2023-04-24T16:10:41;19.00;53.80
3986;DHT22;2007;48.750;9.278;2023-04-24T16:13:11;19.00;53.90